sensor_id;sensor_type;location;lat;lon;timestamp;temperature;humidity
39881;DHT22;25554;44.954;10.068;2022-08-19T00:07:53;20.90;99.90
39881;DHT22;25554;44.954;10.068;2022-08-19T00:17:54;21.00;99.90
39881;DHT22;25554;44.954;10.068;2022-08-19T00:20:33;21.00;99.90
39881;DHT22;25554;44.954;10.068;2022-08-19T00:23:55;21.00;99.90
39881;DHT22;25554;44.954;10.068;2022-08-19T00:26:47;21.00;99.90
39881;DHT22;25554;44.954;10.068;2022-08-19T00:44:28;21.00;99.90
39881;DHT22;25554;44.954;10.068;2022-08-19T00:55:43;21.00;99.90
39881;DHT22;25554;44.954;10.068;2022-08-19T00:58:20;20.90;99.90
39881;DHT22;25554;44.954;10.068;2022-08-19T01:00:53;20.90;99.90
39881;DHT22;25554;44.954;10.068;2022-08-19T01:16:00;20.90;99.90
39881;DHT22;25554;44.954;10.068;2022-08-19T02:09:31;20.60;99.90
39881;DHT22;25554;44.954;10.068;2022-08-19T02:20:30;19.90;99.90
39881;DHT22;25554;44.954;10.068;2022-08-19T02:34:55;19.30;99.90
39881;DHT22;25554;44.954;10.068;2022-08-19T02:41:22;19.30;99.90
39881;DHT22;25554;44.954;10.068;2022-08-19T03:14:11;19.10;99.90
39881;DHT22;25554;44.954;10.068;2022-08-19T03:28:53;19.20;99.90
39881;DHT22;25554;44.954;10.068;2022-08-19T03:31:51;19.20;99.90
39881;DHT22;25554;44.954;10.068;2022-08-19T03:34:50;19.10;99.90
39881;DHT22;25554;44.954;10.068;2022-08-19T03:37:37;19.20;99.90
39881;DHT22;25554;44.954;10.068;2022-08-19T05:42:43;18.80;99.90
39881;DHT22;25554;44.954;10.068;2022-08-19T06:00:42;18.50;99.90
39881;DHT22;25554;44.954;10.068;2022-08-19T06:04:30;18.50;99.90
39881;DHT22;25554;44.954;10.068;2022-08-19T06:14:20;18.60;99.90
39881;DHT22;25554;44.954;10.068;2022-08-19T06:17:05;18.50;99.90
39881;DHT22;25554;44.954;10.068;2022-08-19T06:26:15;18.50;99.90
39881;DHT22;25554;44.954;10.068;2022-08-19T06:29:06;18.50;99.90
39881;DHT22;25554;44.954;10.068;2022-08-19T06:46:57;18.50;99.90
39881;DHT22;25554;44.954;10.068;2022-08-19T07:13:48;18.90;99.90
39881;DHT22;25554;44.954;10.068;2022-08-19T07:24:59;19.10;99.90
39881;DHT22;25554;44.954;10.068;2022-08-19T07:32:14;19.20;99.90
39881;DHT22;25554;44.954;10.068;2022-08-19T07:38:06;19.20;99.90
39881;DHT22;25554;44.954;10.068;2022-08-19T07:55:42;19.60;99.90
39881;DHT22;25554;44.954;10.068;2022-08-19T07:58:38;19.70;99.90
39881;DHT22;25554;44.954;10.068;2022-08-19T08:16:41;20.30;99.90
39881;DHT22;25554;44.954;10.068;2022-08-19T08:19:47;20.40;99.90
39881;DHT22;25554;44.954;10.068;2022-08-19T08:22:46;20.50;99.90
39881;DHT22;25554;44.954;10.068;2022-08-19T08:26:08;20.50;99.90
39881;DHT22;25554;44.954;10.068;2022-08-19T08:29:00;20.50;99.90
39881;DHT22;25554;44.954;10.068;2022-08-19T08:42:51;20.70;99.90
39881;DHT22;25554;44.954;10.068;2022-08-19T08:46:23;20.90;99.90
39881;DHT22;25554;44.954;10.068;2022-08-19T08:53:26;21.10;99.90
39881;DHT22;25554;44.954;10.068;2022-08-19T09:42:21;21.70;99.90
39881;DHT22;25554;44.954;10.068;2022-08-19T09:53:20;22.00;99.90
39881;DHT22;25554;44.954;10.068;2022-08-19T09:55:48;21.50;99.90
39881;DHT22;25554;44.954;10.068;2022-08-19T09:58:15;21.40;99.90
39881;DHT22;25554;44.954;10.068;2022-08-19T10:00:44;21.40;99.90
39881;DHT22;25554;44.954;10.068;2022-08-19T10:05:44;21.30;99.90
39881;DHT22;25554;44.954;10.068;2022-08-19T10:08:35;21.60;99.90
39881;DHT22;25554;44.954;10.068;2022-08-19T10:11:03;21.80;99.90
39881;DHT22;25554;44.954;10.068;2022-08-19T10:13:32;22.00;99.90
39881;DHT22;25554;44.954;10.068;2022-08-19T10:16:07;22.10;99.90
39881;DHT22;25554;44.954;10.068;2022-08-19T10:18:35;22.20;99.90
39881;DHT22;25554;44.954;10.068;2022-08-19T10:21:07;22.30;99.90
39881;DHT22;25554;44.954;10.068;2022-08-19T10:23:36;22.50;99.90
39881;DHT22;25554;44.954;10.068;2022-08-19T10:26:07;22.60;99.90
39881;DHT22;25554;44.954;10.068;2022-08-19T10:28:35;22.80;99.90
39881;DHT22;25554;44.954;10.068;2022-08-19T10:31:10;23.00;99.90
39881;DHT22;25554;44.954;10.068;2022-08-19T10:33:38;23.00;99.90
39881;DHT22;25554;44.954;10.068;2022-08-19T10:36:12;23.10;99.90
39881;DHT22;25554;44.954;10.068;2022-08-19T10:38:41;22.60;99.90
39881;DHT22;25554;44.954;10.068;2022-08-19T10:41:13;23.10;99.90
39881;DHT22;25554;44.954;10.068;2022-08-19T10:43:41;23.00;99.90
39881;DHT22;25554;44.954;10.068;2022-08-19T10:46:09;23.10;99.90
39881;DHT22;25554;44.954;10.068;2022-08-19T10:48:37;23.20;99.90
39881;DHT22;25554;44.954;10.068;2022-08-19T10:51:03;23.30;99.90
39881;DHT22;25554;44.954;10.068;2022-08-19T10:53:49;23.40;99.90
39881;DHT22;25554;44.954;10.068;2022-08-19T10:56:15;23.70;99.90
39881;DHT22;25554;44.954;10.068;2022-08-19T10:59:00;23.90;99.90
39881;DHT22;25554;44.954;10.068;2022-08-19T11:01:30;24.10;99.90
39881;DHT22;25554;44.954;10.068;2022-08-19T11:03:57;24.10;99.90
39881;DHT22;25554;44.954;10.068;2022-08-19T11:06:24;24.10;99.90
39881;DHT22;25554;44.954;10.068;2022-08-19T11:08:54;24.00;99.90
39881;DHT22;25554;44.954;10.068;2022-08-19T11:11:21;24.10;99.90
39881;DHT22;25554;44.954;10.068;2022-08-19T11:13:49;24.10;99.90
39881;DHT22;25554;44.954;10.068;2022-08-19T11:16:18;24.10;99.90
39881;DHT22;25554;44.954;10.068;2022-08-19T11:18:50;24.00;99.90
39881;DHT22;25554;44.954;10.068;2022-08-19T11:21:18;24.10;99.90
39881;DHT22;25554;44.954;10.068;2022-08-19T11:23:47;24.20;99.90
39881;DHT22;25554;44.954;10.068;2022-08-19T11:26:14;24.20;99.90
39881;DHT22;25554;44.954;10.068;2022-08-19T11:28:41;24.20;99.90
39881;DHT22;25554;44.954;10.068;2022-08-19T11:31:20;24.20;99.90
39881;DHT22;25554;44.954;10.068;2022-08-19T11:33:47;24.20;99.90
39881;DHT22;25554;44.954;10.068;2022-08-19T11:36:17;24.30;99.90
39881;DHT22;25554;44.954;10.068;2022-08-19T11:38:44;24.40;99.90
39881;DHT22;25554;44.954;10.068;2022-08-19T11:41:11;24.50;99.90
39881;DHT22;25554;44.954;10.068;2022-08-19T11:43:37;24.50;99.90
39881;DHT22;25554;44.954;10.068;2022-08-19T11:46:07;24.50;99.90
39881;DHT22;25554;44.954;10.068;2022-08-19T11:48:36;24.60;99.90
39881;DHT22;25554;44.954;10.068;2022-08-19T11:51:11;24.60;99.90
39881;DHT22;25554;44.954;10.068;2022-08-19T11:53:38;24.80;99.90
39881;DHT22;25554;44.954;10.068;2022-08-19T11:56:05;24.80;99.90
39881;DHT22;25554;44.954;10.068;2022-08-19T11:58:32;24.80;99.90
39881;DHT22;25554;44.954;10.068;2022-08-19T12:00:58;25.00;99.90
39881;DHT22;25554;44.954;10.068;2022-08-19T12:03:25;24.90;99.90
39881;DHT22;25554;44.954;10.068;2022-08-19T12:05:52;25.00;99.90
39881;DHT22;25554;44.954;10.068;2022-08-19T12:08:46;25.00;99.90
39881;DHT22;25554;44.954;10.068;2022-08-19T12:11:16;25.10;99.90
39881;DHT22;25554;44.954;10.068;2022-08-19T12:13:46;25.10;99.90
39881;DHT22;25554;44.954;10.068;2022-08-19T12:16:36;24.30;99.90
39881;DHT22;25554;44.954;10.068;2022-08-19T12:19:28;25.20;99.90
39881;DHT22;25554;44.954;10.068;2022-08-19T12:21:59;25.40;99.90
39881;DHT22;25554;44.954;10.068;2022-08-19T12:27:47;25.70;99.90
39881;DHT22;25554;44.954;10.068;2022-08-19T12:30:15;25.80;99.90
39881;DHT22;25554;44.954;10.068;2022-08-19T12:32:41;25.70;99.90
39881;DHT22;25554;44.954;10.068;2022-08-19T12:35:08;25.50;99.90
39881;DHT22;25554;44.954;10.068;2022-08-19T12:37:38;25.30;99.90
39881;DHT22;25554;44.954;10.068;2022-08-19T12:40:05;25.40;99.90
39881;DHT22;25554;44.954;10.068;2022-08-19T12:42:32;25.40;99.90
39881;DHT22;25554;44.954;10.068;2022-08-19T12:44:58;25.40;99.90
39881;DHT22;25554;44.954;10.068;2022-08-19T12:47:24;25.40;99.90
39881;DHT22;25554;44.954;10.068;2022-08-19T12:49:52;25.50;99.90
39881;DHT22;25554;44.954;10.068;2022-08-19T12:52:18;25.80;99.90
39881;DHT22;25554;44.954;10.068;2022-08-19T12:54:47;26.00;99.90
39881;DHT22;25554;44.954;10.068;2022-08-19T12:57:13;26.20;99.90
39881;DHT22;25554;44.954;10.068;2022-08-19T12:59:41;26.20;99.90
39881;DHT22;25554;44.954;10.068;2022-08-19T13:02:07;25.80;99.90
39881;DHT22;25554;44.954;10.068;2022-08-19T13:04:34;25.80;99.90
39881;DHT22;25554;44.954;10.068;2022-08-19T13:07:07;25.70;99.90
39881;DHT22;25554;44.954;10.068;2022-08-19T13:09:35;25.90;99.90
39881;DHT22;25554;44.954;10.068;2022-08-19T13:12:02;26.00;99.90
39881;DHT22;25554;44.954;10.068;2022-08-19T13:14:29;25.90;99.90
39881;DHT22;25554;44.954;10.068;2022-08-19T13:16:57;26.20;99.90
39881;DHT22;25554;44.954;10.068;2022-08-19T13:19:24;26.20;99.90
39881;DHT22;25554;44.954;10.068;2022-08-19T13:21:50;26.20;99.90
39881;DHT22;25554;44.954;10.068;2022-08-19T13:24:17;26.40;99.90
39881;DHT22;25554;44.954;10.068;2022-08-19T13:26:44;26.60;99.90
39881;DHT22;25554;44.954;10.068;2022-08-19T13:29:10;26.80;99.90
39881;DHT22;25554;44.954;10.068;2022-08-19T13:31:55;26.90;99.90
39881;DHT22;25554;44.954;10.068;2022-08-19T13:34:40;26.90;99.90
39881;DHT22;25554;44.954;10.068;2022-08-19T13:37:06;26.90;99.90
39881;DHT22;25554;44.954;10.068;2022-08-19T13:39:34;27.00;99.90
39881;DHT22;25554;44.954;10.068;2022-08-19T13:42:02;26.80;99.90
39881;DHT22;25554;44.954;10.068;2022-08-19T13:44:31;26.60;99.90
39881;DHT22;25554;44.954;10.068;2022-08-19T13:47:05;26.60;99.90
39881;DHT22;25554;44.954;10.068;2022-08-19T13:49:34;26.50;99.90
39881;DHT22;25554;44.954;10.068;2022-08-19T13:52:03;26.50;99.90
39881;DHT22;25554;44.954;10.068;2022-08-19T13:54:29;26.40;99.90
39881;DHT22;25554;44.954;10.068;2022-08-19T13:56:56;26.30;99.90
39881;DHT22;25554;44.954;10.068;2022-08-19T13:59:22;26.30;99.90
39881;DHT22;25554;44.954;10.068;2022-08-19T14:01:48;26.20;99.90
39881;DHT22;25554;44.954;10.068;2022-08-19T14:04:15;26.30;99.90
39881;DHT22;25554;44.954;10.068;2022-08-19T14:06:42;26.30;99.90
39881;DHT22;25554;44.954;10.068;2022-08-19T14:09:08;26.30;99.90
39881;DHT22;25554;44.954;10.068;2022-08-19T14:11:34;26.70;99.90
39881;DHT22;25554;44.954;10.068;2022-08-19T14:14:01;27.10;99.90
39881;DHT22;25554;44.954;10.068;2022-08-19T14:16:27;27.20;99.90
39881;DHT22;25554;44.954;10.068;2022-08-19T14:18:53;27.20;99.90
39881;DHT22;25554;44.954;10.068;2022-08-19T14:21:21;27.70;99.90
39881;DHT22;25554;44.954;10.068;2022-08-19T14:23:48;27.80;99.90
39881;DHT22;25554;44.954;10.068;2022-08-19T14:26:17;28.10;99.90
39881;DHT22;25554;44.954;10.068;2022-08-19T14:28:44;28.20;99.90
39881;DHT22;25554;44.954;10.068;2022-08-19T14:31:12;28.20;99.90
39881;DHT22;25554;44.954;10.068;2022-08-19T14:33:40;28.20;99.90
39881;DHT22;25554;44.954;10.068;2022-08-19T14:36:06;28.40;99.90
39881;DHT22;25554;44.954;10.068;2022-08-19T14:38:33;28.60;99.90
39881;DHT22;25554;44.954;10.068;2022-08-19T14:43:36;28.40;99.90
39881;DHT22;25554;44.954;10.068;2022-08-19T14:46:04;28.60;99.90
39881;DHT22;25554;44.954;10.068;2022-08-19T14:48:30;28.80;99.90
39881;DHT22;25554;44.954;10.068;2022-08-19T14:50:57;29.00;99.90
39881;DHT22;25554;44.954;10.068;2022-08-19T14:53:23;29.00;99.90
39881;DHT22;25554;44.954;10.068;2022-08-19T14:55:49;29.00;99.90
39881;DHT22;25554;44.954;10.068;2022-08-19T14:58:16;28.90;99.90
39881;DHT22;25554;44.954;10.068;2022-08-19T15:00:42;28.90;99.90
39881;DHT22;25554;44.954;10.068;2022-08-19T15:03:09;29.00;99.90
39881;DHT22;25554;44.954;10.068;2022-08-19T15:05:35;29.20;99.90
39881;DHT22;25554;44.954;10.068;2022-08-19T15:08:03;29.30;99.90
39881;DHT22;25554;44.954;10.068;2022-08-19T15:10:30;29.10;99.90
39881;DHT22;25554;44.954;10.068;2022-08-19T15:12:56;28.80;99.90
39881;DHT22;25554;44.954;10.068;2022-08-19T15:15:23;28.80;99.90
39881;DHT22;25554;44.954;10.068;2022-08-19T15:17:49;28.80;99.90
39881;DHT22;25554;44.954;10.068;2022-08-19T15:20:18;28.70;99.90
39881;DHT22;25554;44.954;10.068;2022-08-19T15:22:45;28.90;99.90
39881;DHT22;25554;44.954;10.068;2022-08-19T15:25:14;29.10;99.90
39881;DHT22;25554;44.954;10.068;2022-08-19T15:27:41;29.10;99.90
39881;DHT22;25554;44.954;10.068;2022-08-19T15:30:08;29.30;99.90
39881;DHT22;25554;44.954;10.068;2022-08-19T15:32:36;29.60;99.90
39881;DHT22;25554;44.954;10.068;2022-08-19T15:35:03;29.40;99.90
39881;DHT22;25554;44.954;10.068;2022-08-19T15:37:30;29.40;99.90
39881;DHT22;25554;44.954;10.068;2022-08-19T15:39:56;29.50;99.90
39881;DHT22;25554;44.954;10.068;2022-08-19T15:42:40;29.40;99.90
39881;DHT22;25554;44.954;10.068;2022-08-19T15:45:08;29.60;99.40
39881;DHT22;25554;44.954;10.068;2022-08-19T15:47:37;29.60;99.10
39881;DHT22;25554;44.954;10.068;2022-08-19T15:50:19;29.60;99.40
39881;DHT22;25554;44.954;10.068;2022-08-19T15:52:53;29.70;99.90
39881;DHT22;25554;44.954;10.068;2022-08-19T15:55:23;29.40;98.80
39881;DHT22;25554;44.954;10.068;2022-08-19T15:57:51;29.40;99.40
39881;DHT22;25554;44.954;10.068;2022-08-19T16:00:36;29.30;99.80
39881;DHT22;25554;44.954;10.068;2022-08-19T16:03:21;29.10;99.30
39881;DHT22;25554;44.954;10.068;2022-08-19T16:06:06;28.70;99.80
39881;DHT22;25554;44.954;10.068;2022-08-19T16:08:59;28.70;99.90
39881;DHT22;25554;44.954;10.068;2022-08-19T16:11:31;28.50;99.90
39881;DHT22;25554;44.954;10.068;2022-08-19T16:13:59;28.40;99.90
39881;DHT22;25554;44.954;10.068;2022-08-19T16:16:33;28.50;99.90
39881;DHT22;25554;44.954;10.068;2022-08-19T16:19:03;28.60;99.90
39881;DHT22;25554;44.954;10.068;2022-08-19T16:21:32;28.60;99.90
39881;DHT22;25554;44.954;10.068;2022-08-19T16:24:02;28.60;99.90
39881;DHT22;25554;44.954;10.068;2022-08-19T16:26:29;28.70;99.90
39881;DHT22;25554;44.954;10.068;2022-08-19T16:28:59;28.70;99.90
39881;DHT22;25554;44.954;10.068;2022-08-19T16:31:27;28.80;99.90
39881;DHT22;25554;44.954;10.068;2022-08-19T16:33:55;28.70;99.90
39881;DHT22;25554;44.954;10.068;2022-08-19T16:36:22;28.50;99.90
39881;DHT22;25554;44.954;10.068;2022-08-19T16:38:51;28.50;99.90
39881;DHT22;25554;44.954;10.068;2022-08-19T16:41:19;28.50;99.90
39881;DHT22;25554;44.954;10.068;2022-08-19T16:43:45;28.30;99.90
39881;DHT22;25554;44.954;10.068;2022-08-19T16:46:14;28.50;99.90
39881;DHT22;25554;44.954;10.068;2022-08-19T16:48:40;28.50;99.90
39881;DHT22;25554;44.954;10.068;2022-08-19T16:51:09;28.50;99.90
39881;DHT22;25554;44.954;10.068;2022-08-19T16:53:37;28.50;99.90
39881;DHT22;25554;44.954;10.068;2022-08-19T16:56:04;28.50;99.90
39881;DHT22;25554;44.954;10.068;2022-08-19T16:58:31;28.50;99.90
39881;DHT22;25554;44.954;10.068;2022-08-19T17:01:04;28.50;99.90
39881;DHT22;25554;44.954;10.068;2022-08-19T17:03:33;28.30;99.90
39881;DHT22;25554;44.954;10.068;2022-08-19T17:06:00;28.20;99.90
39881;DHT22;25554;44.954;10.068;2022-08-19T17:08:30;28.10;99.90
39881;DHT22;25554;44.954;10.068;2022-08-19T17:10:57;27.90;99.90
39881;DHT22;25554;44.954;10.068;2022-08-19T17:13:27;27.80;99.90
39881;DHT22;25554;44.954;10.068;2022-08-19T17:15:55;27.80;99.90
39881;DHT22;25554;44.954;10.068;2022-08-19T17:18:22;27.90;99.90
39881;DHT22;25554;44.954;10.068;2022-08-19T17:20:49;28.00;99.90
39881;DHT22;25554;44.954;10.068;2022-08-19T17:23:19;28.00;99.90
39881;DHT22;25554;44.954;10.068;2022-08-19T17:25:47;28.00;99.90
39881;DHT22;25554;44.954;10.068;2022-08-19T17:28:17;28.00;99.90
39881;DHT22;25554;44.954;10.068;2022-08-19T17:30:44;27.90;99.90
39881;DHT22;25554;44.954;10.068;2022-08-19T17:33:11;27.80;99.90
39881;DHT22;25554;44.954;10.068;2022-08-19T17:35:37;27.70;99.90
39881;DHT22;25554;44.954;10.068;2022-08-19T17:38:15;27.60;99.90
39881;DHT22;25554;44.954;10.068;2022-08-19T17:40:43;27.40;99.90
39881;DHT22;25554;44.954;10.068;2022-08-19T17:43:11;27.10;99.90
39881;DHT22;25554;44.954;10.068;2022-08-19T17:45:39;26.90;99.90
39881;DHT22;25554;44.954;10.068;2022-08-19T17:48:06;26.70;99.90
39881;DHT22;25554;44.954;10.068;2022-08-19T17:50:33;26.60;99.90
39881;DHT22;25554;44.954;10.068;2022-08-19T17:53:00;26.40;99.90
39881;DHT22;25554;44.954;10.068;2022-08-19T17:55:28;26.30;99.90
39881;DHT22;25554;44.954;10.068;2022-08-19T17:57:55;26.20;99.90
39881;DHT22;25554;44.954;10.068;2022-08-19T18:00:21;26.10;99.90
39881;DHT22;25554;44.954;10.068;2022-08-19T18:02:57;26.00;99.90
39881;DHT22;25554;44.954;10.068;2022-08-19T18:05:28;25.80;99.90
39881;DHT22;25554;44.954;10.068;2022-08-19T18:07:55;25.70;99.90
39881;DHT22;25554;44.954;10.068;2022-08-19T18:10:24;25.60;99.90
39881;DHT22;25554;44.954;10.068;2022-08-19T18:12:52;25.40;99.90
39881;DHT22;25554;44.954;10.068;2022-08-19T18:15:20;25.30;99.90
39881;DHT22;25554;44.954;10.068;2022-08-19T18:17:47;25.30;99.90
39881;DHT22;25554;44.954;10.068;2022-08-19T18:20:15;25.20;99.90
39881;DHT22;25554;44.954;10.068;2022-08-19T18:22:45;25.10;99.90
39881;DHT22;25554;44.954;10.068;2022-08-19T18:25:20;25.00;99.90
39881;DHT22;25554;44.954;10.068;2022-08-19T18:27:54;24.90;99.90
39881;DHT22;25554;44.954;10.068;2022-08-19T18:30:22;24.90;99.90
39881;DHT22;25554;44.954;10.068;2022-08-19T18:32:50;24.80;99.90
39881;DHT22;25554;44.954;10.068;2022-08-19T18:35:23;24.80;99.90
39881;DHT22;25554;44.954;10.068;2022-08-19T18:37:58;24.70;99.90
39881;DHT22;25554;44.954;10.068;2022-08-19T18:40:27;24.60;99.90
39881;DHT22;25554;44.954;10.068;2022-08-19T18:43:13;24.60;99.90
39881;DHT22;25554;44.954;10.068;2022-08-19T18:45:49;24.50;99.90
39881;DHT22;25554;44.954;10.068;2022-08-19T18:48:35;24.40;99.90
39881;DHT22;25554;44.954;10.068;2022-08-19T18:51:22;24.30;99.90
39881;DHT22;25554;44.954;10.068;2022-08-19T18:53:49;24.20;99.90
39881;DHT22;25554;44.954;10.068;2022-08-19T18:56:18;24.20;99.90
39881;DHT22;25554;44.954;10.068;2022-08-19T18:58:45;24.10;99.90
39881;DHT22;25554;44.954;10.068;2022-08-19T19:01:15;24.00;99.90
39881;DHT22;25554;44.954;10.068;2022-08-19T19:03:45;24.00;99.90
39881;DHT22;25554;44.954;10.068;2022-08-19T19:06:19;24.00;99.90
39881;DHT22;25554;44.954;10.068;2022-08-19T19:08:46;23.90;99.90
39881;DHT22;25554;44.954;10.068;2022-08-19T19:11:18;23.90;99.90
39881;DHT22;25554;44.954;10.068;2022-08-19T19:13:46;23.90;99.90
39881;DHT22;25554;44.954;10.068;2022-08-19T19:16:14;23.80;99.90
39881;DHT22;25554;44.954;10.068;2022-08-19T19:18:41;23.80;99.90
39881;DHT22;25554;44.954;10.068;2022-08-19T19:21:08;23.80;99.90
39881;DHT22;25554;44.954;10.068;2022-08-19T19:23:37;23.70;99.90
39881;DHT22;25554;44.954;10.068;2022-08-19T19:26:07;23.70;99.90
39881;DHT22;25554;44.954;10.068;2022-08-19T19:28:37;23.70;99.90
39881;DHT22;25554;44.954;10.068;2022-08-19T19:31:16;23.70;99.90
39881;DHT22;25554;44.954;10.068;2022-08-19T19:33:44;23.70;99.90
39881;DHT22;25554;44.954;10.068;2022-08-19T19:36:11;23.70;99.90
39881;DHT22;25554;44.954;10.068;2022-08-19T19:38:38;23.60;99.90
39881;DHT22;25554;44.954;10.068;2022-08-19T19:41:04;23.60;99.90
39881;DHT22;25554;44.954;10.068;2022-08-19T19:43:31;23.60;99.90
39881;DHT22;25554;44.954;10.068;2022-08-19T19:45:58;23.50;99.90
39881;DHT22;25554;44.954;10.068;2022-08-19T19:48:24;23.50;99.90
39881;DHT22;25554;44.954;10.068;2022-08-19T19:50:54;23.40;99.90
39881;DHT22;25554;44.954;10.068;2022-08-19T19:53:23;23.40;99.90
39881;DHT22;25554;44.954;10.068;2022-08-19T19:55:49;23.30;99.90
39881;DHT22;25554;44.954;10.068;2022-08-19T19:58:16;23.30;99.90
39881;DHT22;25554;44.954;10.068;2022-08-19T20:00:43;23.30;99.90
39881;DHT22;25554;44.954;10.068;2022-08-19T20:03:10;23.20;99.90
39881;DHT22;25554;44.954;10.068;2022-08-19T20:05:39;23.20;99.90
39881;DHT22;25554;44.954;10.068;2022-08-19T20:08:05;23.10;99.90
39881;DHT22;25554;44.954;10.068;2022-08-19T20:10:50;23.10;99.90
39881;DHT22;25554;44.954;10.068;2022-08-19T20:13:16;23.10;99.90
39881;DHT22;25554;44.954;10.068;2022-08-19T20:15:42;23.10;99.90
39881;DHT22;25554;44.954;10.068;2022-08-19T20:18:10;23.00;99.90
39881;DHT22;25554;44.954;10.068;2022-08-19T20:20:38;23.00;99.90
39881;DHT22;25554;44.954;10.068;2022-08-19T20:23:05;23.00;99.90
39881;DHT22;25554;44.954;10.068;2022-08-19T20:25:31;23.00;99.90
39881;DHT22;25554;44.954;10.068;2022-08-19T20:27:59;23.00;99.90
39881;DHT22;25554;44.954;10.068;2022-08-19T20:30:27;23.00;99.90
39881;DHT22;25554;44.954;10.068;2022-08-19T20:32:53;23.00;99.90
39881;DHT22;25554;44.954;10.068;2022-08-19T20:35:21;22.90;99.90
39881;DHT22;25554;44.954;10.068;2022-08-19T20:37:48;22.90;99.90
39881;DHT22;25554;44.954;10.068;2022-08-19T20:40:15;22.90;99.90
39881;DHT22;25554;44.954;10.068;2022-08-19T20:42:43;22.90;99.90
39881;DHT22;25554;44.954;10.068;2022-08-19T20:45:13;22.80;99.90
39881;DHT22;25554;44.954;10.068;2022-08-19T20:47:40;22.70;99.90
39881;DHT22;25554;44.954;10.068;2022-08-19T20:50:08;22.60;99.90
39881;DHT22;25554;44.954;10.068;2022-08-19T20:52:35;22.60;99.90
39881;DHT22;25554;44.954;10.068;2022-08-19T20:55:03;22.50;99.90
39881;DHT22;25554;44.954;10.068;2022-08-19T20:57:30;22.50;99.90
39881;DHT22;25554;44.954;10.068;2022-08-19T20:59:56;22.40;99.90
39881;DHT22;25554;44.954;10.068;2022-08-19T21:02:22;22.30;99.90
39881;DHT22;25554;44.954;10.068;2022-08-19T21:04:50;22.30;99.90
39881;DHT22;25554;44.954;10.068;2022-08-19T21:07:17;22.20;99.90
39881;DHT22;25554;44.954;10.068;2022-08-19T21:09:43;22.30;99.90
39881;DHT22;25554;44.954;10.068;2022-08-19T21:12:10;22.20;99.90
39881;DHT22;25554;44.954;10.068;2022-08-19T21:14:42;22.20;99.90
39881;DHT22;25554;44.954;10.068;2022-08-19T21:17:08;22.20;99.90
39881;DHT22;25554;44.954;10.068;2022-08-19T21:19:35;22.10;99.90
39881;DHT22;25554;44.954;10.068;2022-08-19T21:22:02;22.10;99.90
39881;DHT22;25554;44.954;10.068;2022-08-19T21:24:29;22.00;99.90
39881;DHT22;25554;44.954;10.068;2022-08-19T21:26:55;22.00;99.90
39881;DHT22;25554;44.954;10.068;2022-08-19T21:29:22;21.90;99.90
39881;DHT22;25554;44.954;10.068;2022-08-19T21:31:49;21.90;99.90
39881;DHT22;25554;44.954;10.068;2022-08-19T21:34:15;21.80;99.90
39881;DHT22;25554;44.954;10.068;2022-08-19T21:36:42;21.80;99.90
39881;DHT22;25554;44.954;10.068;2022-08-19T21:39:08;21.80;99.90
39881;DHT22;25554;44.954;10.068;2022-08-19T21:41:35;21.70;99.90
39881;DHT22;25554;44.954;10.068;2022-08-19T21:44:01;21.70;99.90
39881;DHT22;25554;44.954;10.068;2022-08-19T21:46:27;21.70;99.90
39881;DHT22;25554;44.954;10.068;2022-08-19T21:48:54;21.60;99.90
39881;DHT22;25554;44.954;10.068;2022-08-19T21:51:20;21.60;99.90
39881;DHT22;25554;44.954;10.068;2022-08-19T21:53:47;21.60;99.90
39881;DHT22;25554;44.954;10.068;2022-08-19T21:56:13;21.50;99.90
39881;DHT22;25554;44.954;10.068;2022-08-19T21:58:39;21.50;99.90
39881;DHT22;25554;44.954;10.068;2022-08-19T22:01:06;21.50;99.90
39881;DHT22;25554;44.954;10.068;2022-08-19T22:03:34;21.50;99.90
39881;DHT22;25554;44.954;10.068;2022-08-19T22:06:01;21.50;99.90
39881;DHT22;25554;44.954;10.068;2022-08-19T22:08:27;21.50;99.90
39881;DHT22;25554;44.954;10.068;2022-08-19T22:10:54;21.50;99.90
39881;DHT22;25554;44.954;10.068;2022-08-19T22:13:21;21.40;99.90
39881;DHT22;25554;44.954;10.068;2022-08-19T22:15:48;21.30;99.90
39881;DHT22;25554;44.954;10.068;2022-08-19T22:18:15;21.20;99.90
39881;DHT22;25554;44.954;10.068;2022-08-19T22:20:43;21.20;99.90
39881;DHT22;25554;44.954;10.068;2022-08-19T22:23:10;21.10;99.90
39881;DHT22;25554;44.954;10.068;2022-08-19T22:25:38;21.10;99.90
39881;DHT22;25554;44.954;10.068;2022-08-19T22:28:08;20.90;99.90
39881;DHT22;25554;44.954;10.068;2022-08-19T22:30:36;21.10;99.90
39881;DHT22;25554;44.954;10.068;2022-08-19T22:33:08;21.00;99.90
39881;DHT22;25554;44.954;10.068;2022-08-19T22:35:38;21.00;99.90
39881;DHT22;25554;44.954;10.068;2022-08-19T22:38:06;20.90;99.90
39881;DHT22;25554;44.954;10.068;2022-08-19T22:40:36;20.90;99.90
39881;DHT22;25554;44.954;10.068;2022-08-19T22:43:24;20.90;99.90
39881;DHT22;25554;44.954;10.068;2022-08-19T22:45:53;20.90;99.90
39881;DHT22;25554;44.954;10.068;2022-08-19T22:48:22;20.90;99.90
39881;DHT22;25554;44.954;10.068;2022-08-19T22:50:50;20.90;99.90
39881;DHT22;25554;44.954;10.068;2022-08-19T22:53:38;20.90;99.90
39881;DHT22;25554;44.954;10.068;2022-08-19T22:56:06;20.90;99.90
39881;DHT22;25554;44.954;10.068;2022-08-19T22:58:33;20.90;99.90
39881;DHT22;25554;44.954;10.068;2022-08-19T23:01:00;20.80;99.90
39881;DHT22;25554;44.954;10.068;2022-08-19T23:03:27;20.80;99.90
39881;DHT22;25554;44.954;10.068;2022-08-19T23:05:56;20.80;99.90
39881;DHT22;25554;44.954;10.068;2022-08-19T23:08:22;20.80;99.90
39881;DHT22;25554;44.954;10.068;2022-08-19T23:10:49;21.00;99.90
39881;DHT22;25554;44.954;10.068;2022-08-19T23:13:16;20.80;99.90
39881;DHT22;25554;44.954;10.068;2022-08-19T23:15:44;20.80;99.90
39881;DHT22;25554;44.954;10.068;2022-08-19T23:18:11;20.80;99.90
39881;DHT22;25554;44.954;10.068;2022-08-19T23:20:39;20.80;99.90
39881;DHT22;25554;44.954;10.068;2022-08-19T23:23:10;20.80;99.90
39881;DHT22;25554;44.954;10.068;2022-08-19T23:25:37;20.80;99.90
39881;DHT22;25554;44.954;10.068;2022-08-19T23:28:05;20.70;99.90
39881;DHT22;25554;44.954;10.068;2022-08-19T23:30:51;20.70;99.90
39881;DHT22;25554;44.954;10.068;2022-08-19T23:33:24;20.80;99.90
39881;DHT22;25554;44.954;10.068;2022-08-19T23:36:05;20.70;99.90
39881;DHT22;25554;44.954;10.068;2022-08-19T23:38:33;20.70;99.90
39881;DHT22;25554;44.954;10.068;2022-08-19T23:41:02;20.60;99.90
39881;DHT22;25554;44.954;10.068;2022-08-19T23:43:29;20.60;99.90